(°C)
18°
19°
20°
20°
19°
19°
18°
(°C)
17°
18°
18°
18°
18°
17°
16°
ONO
ONO
ONO
ONO
ONO
ONO
ONO
(km/u)
6-12
7-12
9-14
10-12
9-13
10-11
9-11
(mm)
3
0
0
0.9
1.2
1.2
1.4
(%)
32
34
48
75
75
80
73

Zonverhoging

/ 60.2°
sun-icon
UV 5
05:52
20:49
Afnemende maan (291°)
00:42
16:04

METAR voor Innsbruck (LOWI)

Tijd Voorwaarden Temperatuur/
Dauwpunt
Wind Zicht Weer Wolken Luchtdruk Wijzigen Ruw
VFR 18°C / 12°C variable 3kt >10km Light Showers Rain 3.00mm precipitation Vertical Visibility of 0ft. 1016 No Significant change LOWI 021050Z VRB03KT 9999 -SHRA FEW028 BKN080 18/12 Q1016 NOSIG
VFR 18°C / 12°C 230º variable 190º to 270º 4kt >10km Light Showers Rain 3.00mm precipitation Vertical Visibility of 0ft. 1017 No Significant change LOWI 021020Z 23004KT 190V270 9999 -SHRA FEW028 BKN080 18/12 Q1017 NOSIG
VFR 18°C / 11°C variable 2kt >10km - Few Clouds 2500ft 1017 No Significant change LOWI 020950Z VRB02KT 9999 FEW025 BKN090 18/11 Q1017 NOSIG
VFR 17°C / 12°C variable 2kt >10km - Few Clouds 1800ft 1017 No Significant change LOWI 020920Z VRB02KT 9999 FEW018 BKN090 17/12 Q1017 NOSIG
VFR 17°C / 12°C variable 1kt >10km - Few Clouds 1500ft 1017 No Significant change LOWI 020850Z VRB01KT 9999 FEW015 BKN090 17/12 Q1017 NOSIG
VFR 16°C / 12°C variable 2kt >10km - Few Clouds 1500ft 1017 No Significant change LOWI 020820Z VRB02KT 9999 FEW015 SCT080 BKN120 16/12 Q1017 NOSIG
VFR 15°C / 12°C variable 1kt >10km - Few Clouds 1000ft 1017 No Significant change LOWI 020750Z VRB01KT 9999 FEW010 BKN080 15/12 Q1017 NOSIG
VFR 15°C / 12°C 270º variable 240º to 330º 3kt >10km - Few Clouds 500ft 1017 No Significant change LOWI 020720Z 27003KT 240V330 9999 FEW005 SCT012 BKN080 15/12 Q1017 NOSIG
VFR 14°C / 13°C 260º 4kt >10km - Few Clouds 500ft 1017 No Significant change LOWI 020650Z 26004KT 9999 FEW005 SCT025 BKN080 14/13 Q1017 NOSIG
VFR 14°C / 12°C variable 1kt >10km - Few Clouds 500ft 1017 No Significant change LOWI 020620Z VRB01KT 9999 FEW005 SCT025 BKN080 14/12 Q1017 NOSIG
VFR 13°C / 12°C variable 1kt >10km - Few Clouds 500ft 1017 No Significant change LOWI 020550Z VRB01KT 9999 FEW005 SCT023 BKN070 13/12 Q1017 NOSIG
VFR 13°C / 12°C variable 2kt >10km - Few Clouds 500ft 1017 No Significant change LOWI 020520Z VRB02KT 9999 FEW005 SCT023 BKN070 13/12 Q1017 NOSIG
MVFR 13°C / 12°C 240º variable 210º to 270º 3kt >10km - Few Clouds 400ft 1017 No Significant change LOWI 020450Z 24003KT 210V270 9999 FEW004 SCT006 BKN025 13/12 Q1017 NOSIG
VFR 13°C / 12°C variable 2kt >10km - Few Clouds 500ft 1017 No Significant change LOWI 020420Z VRB02KT 9999 FEW005 SCT020 BKN070 13/12 Q1017 NOSIG
VFR 13°C / 12°C variable 1kt >10km - Few Clouds 400ft 1017 No Significant change LOWI 020350Z VRB01KT 9999 FEW004 SCT020 BKN070 13/12 Q1017 NOSIG
MVFR 13°C / 12°C 260º 2kt >10km - Few Clouds 400ft 1017 - LOWI 020320Z AUTO 26002KT 9999 FEW004 BKN022 13/12 Q1017
VFR 13°C / 12°C variable 2kt >10km - Few Clouds 600ft 1016 - LOWI 020250Z AUTO VRB02KT 9999 FEW006 SCT020 BKN070 13/12 Q1016
MVFR 13°C / 12°C variable 0kt >10km - Few Clouds 500ft 1016 - LOWI 020220Z AUTO 00000KT 9999 FEW005 BKN019 13/12 Q1016
MVFR 13°C / 12°C variable 1kt >10km - Few Clouds 600ft 1016 - LOWI 020150Z AUTO VRB01KT 9999 FEW006 SCT013 BKN020 13/12 Q1016
MVFR 13°C / 12°C variable 0kt >10km Light Rain 1.00mm precipitation Vertical Visibility of 0ft. 1016 - LOWI 020120Z AUTO 00000KT 9999 -RA FEW005 SCT010 BKN020 13/12 Q1016
VFR 13°C / 12°C 170º 4kt >10km - Few Clouds 500ft 1016 - LOWI 020050Z AUTO 17004KT 9999 FEW005 SCT009 BKN070 13/12 Q1016
VFR 13°C / 12°C variable 1kt >10km - Few Clouds 500ft 1016 - LOWI 020020Z AUTO VRB01KT 9999 FEW005 SCT007 BKN060 13/12 Q1016
VFR 13°C / 12°C variable 1kt >10km - Few Clouds 500ft 1016 - LOWI 012350Z AUTO VRB01KT 9999 FEW005 SCT030 BKN060 13/12 Q1016
MVFR 13°C / 12°C 180º 2kt >10km - Few Clouds 1500ft 1016 - LOWI 012320Z AUTO 18002KT 9999 FEW015 BKN019 13/12 Q1016

VFR

18°C / 12°C

[Meer]
Wind variable 3kt
Zicht >10km
Weer Light Showers Rain 3.00mm precipitation
Wolken Vertical Visibility of 0ft.
Luchtdruk 1016
Wijzigen No Significant change
Ruw LOWI 021050Z VRB03KT 9999 -SHRA FEW028 BKN080 18/12 Q1016 NOSIG

VFR

18°C / 12°C

[Meer]
Wind 230º variable 190º to 270º 4kt
Zicht >10km
Weer Light Showers Rain 3.00mm precipitation
Wolken Vertical Visibility of 0ft.
Luchtdruk 1017
Wijzigen No Significant change
Ruw LOWI 021020Z 23004KT 190V270 9999 -SHRA FEW028 BKN080 18/12 Q1017 NOSIG

VFR

18°C / 11°C

[Meer]
Wind variable 2kt
Zicht >10km
Weer -
Wolken Few Clouds 2500ft
Luchtdruk 1017
Wijzigen No Significant change
Ruw LOWI 020950Z VRB02KT 9999 FEW025 BKN090 18/11 Q1017 NOSIG

VFR

17°C / 12°C

[Meer]
Wind variable 2kt
Zicht >10km
Weer -
Wolken Few Clouds 1800ft
Luchtdruk 1017
Wijzigen No Significant change
Ruw LOWI 020920Z VRB02KT 9999 FEW018 BKN090 17/12 Q1017 NOSIG

VFR

17°C / 12°C

[Meer]
Wind variable 1kt
Zicht >10km
Weer -
Wolken Few Clouds 1500ft
Luchtdruk 1017
Wijzigen No Significant change
Ruw LOWI 020850Z VRB01KT 9999 FEW015 BKN090 17/12 Q1017 NOSIG

VFR

16°C / 12°C

[Meer]
Wind variable 2kt
Zicht >10km
Weer -
Wolken Few Clouds 1500ft
Luchtdruk 1017
Wijzigen No Significant change
Ruw LOWI 020820Z VRB02KT 9999 FEW015 SCT080 BKN120 16/12 Q1017 NOSIG

VFR

15°C / 12°C

[Meer]
Wind variable 1kt
Zicht >10km
Weer -
Wolken Few Clouds 1000ft
Luchtdruk 1017
Wijzigen No Significant change
Ruw LOWI 020750Z VRB01KT 9999 FEW010 BKN080 15/12 Q1017 NOSIG

VFR

15°C / 12°C

[Meer]
Wind 270º variable 240º to 330º 3kt
Zicht >10km
Weer -
Wolken Few Clouds 500ft
Luchtdruk 1017
Wijzigen No Significant change
Ruw LOWI 020720Z 27003KT 240V330 9999 FEW005 SCT012 BKN080 15/12 Q1017 NOSIG

VFR

14°C / 13°C

[Meer]
Wind 260º 4kt
Zicht >10km
Weer -
Wolken Few Clouds 500ft
Luchtdruk 1017
Wijzigen No Significant change
Ruw LOWI 020650Z 26004KT 9999 FEW005 SCT025 BKN080 14/13 Q1017 NOSIG

VFR

14°C / 12°C

[Meer]
Wind variable 1kt
Zicht >10km
Weer -
Wolken Few Clouds 500ft
Luchtdruk 1017
Wijzigen No Significant change
Ruw LOWI 020620Z VRB01KT 9999 FEW005 SCT025 BKN080 14/12 Q1017 NOSIG

VFR

13°C / 12°C

[Meer]
Wind variable 1kt
Zicht >10km
Weer -
Wolken Few Clouds 500ft
Luchtdruk 1017
Wijzigen No Significant change
Ruw LOWI 020550Z VRB01KT 9999 FEW005 SCT023 BKN070 13/12 Q1017 NOSIG

VFR

13°C / 12°C

[Meer]
Wind variable 2kt
Zicht >10km
Weer -
Wolken Few Clouds 500ft
Luchtdruk 1017
Wijzigen No Significant change
Ruw LOWI 020520Z VRB02KT 9999 FEW005 SCT023 BKN070 13/12 Q1017 NOSIG

MVFR

13°C / 12°C

[Meer]
Wind 240º variable 210º to 270º 3kt
Zicht >10km
Weer -
Wolken Few Clouds 400ft
Luchtdruk 1017
Wijzigen No Significant change
Ruw LOWI 020450Z 24003KT 210V270 9999 FEW004 SCT006 BKN025 13/12 Q1017 NOSIG

VFR

13°C / 12°C

[Meer]
Wind variable 2kt
Zicht >10km
Weer -
Wolken Few Clouds 500ft
Luchtdruk 1017
Wijzigen No Significant change
Ruw LOWI 020420Z VRB02KT 9999 FEW005 SCT020 BKN070 13/12 Q1017 NOSIG

VFR

13°C / 12°C

[Meer]
Wind variable 1kt
Zicht >10km
Weer -
Wolken Few Clouds 400ft
Luchtdruk 1017
Wijzigen No Significant change
Ruw LOWI 020350Z VRB01KT 9999 FEW004 SCT020 BKN070 13/12 Q1017 NOSIG

MVFR

13°C / 12°C

[Meer]
Wind 260º 2kt
Zicht >10km
Weer -
Wolken Few Clouds 400ft
Luchtdruk 1017
Wijzigen -
Ruw LOWI 020320Z AUTO 26002KT 9999 FEW004 BKN022 13/12 Q1017

VFR

13°C / 12°C

[Meer]
Wind variable 2kt
Zicht >10km
Weer -
Wolken Few Clouds 600ft
Luchtdruk 1016
Wijzigen -
Ruw LOWI 020250Z AUTO VRB02KT 9999 FEW006 SCT020 BKN070 13/12 Q1016

MVFR

13°C / 12°C

[Meer]
Wind variable 0kt
Zicht >10km
Weer -
Wolken Few Clouds 500ft
Luchtdruk 1016
Wijzigen -
Ruw LOWI 020220Z AUTO 00000KT 9999 FEW005 BKN019 13/12 Q1016

MVFR

13°C / 12°C

[Meer]
Wind variable 1kt
Zicht >10km
Weer -
Wolken Few Clouds 600ft
Luchtdruk 1016
Wijzigen -
Ruw LOWI 020150Z AUTO VRB01KT 9999 FEW006 SCT013 BKN020 13/12 Q1016

MVFR

13°C / 12°C

[Meer]
Wind variable 0kt
Zicht >10km
Weer Light Rain 1.00mm precipitation
Wolken Vertical Visibility of 0ft.
Luchtdruk 1016
Wijzigen -
Ruw LOWI 020120Z AUTO 00000KT 9999 -RA FEW005 SCT010 BKN020 13/12 Q1016

VFR

13°C / 12°C

[Meer]
Wind 170º 4kt
Zicht >10km
Weer -
Wolken Few Clouds 500ft
Luchtdruk 1016
Wijzigen -
Ruw LOWI 020050Z AUTO 17004KT 9999 FEW005 SCT009 BKN070 13/12 Q1016

VFR

13°C / 12°C

[Meer]
Wind variable 1kt
Zicht >10km
Weer -
Wolken Few Clouds 500ft
Luchtdruk 1016
Wijzigen -
Ruw LOWI 020020Z AUTO VRB01KT 9999 FEW005 SCT007 BKN060 13/12 Q1016

VFR

13°C / 12°C

[Meer]
Wind variable 1kt
Zicht >10km
Weer -
Wolken Few Clouds 500ft
Luchtdruk 1016
Wijzigen -
Ruw LOWI 012350Z AUTO VRB01KT 9999 FEW005 SCT030 BKN060 13/12 Q1016

MVFR

13°C / 12°C

[Meer]
Wind 180º 2kt
Zicht >10km
Weer -
Wolken Few Clouds 1500ft
Luchtdruk 1016
Wijzigen -
Ruw LOWI 012320Z AUTO 18002KT 9999 FEW015 BKN019 13/12 Q1016

TAF voor Innsbruck (LOWI)

From till


Maximum Temperature 21ºC on . Minimum Temperature 11ºC on .
From till Wind 90º 7kt. Visibility 10km or more. Few Clouds 4000ft. Scattered Clouds 6000ft.
Temporarly from till Showers Rain . Scattered Clouds 6000ft. Few Clouds 6000ft.
With 30% probability, Temporarly from till Wind variable 15kt. Gust 25kt. Thunderstorm Rain .
Temporarly from till Light Showers Rain .

Ruw: TAF LOWI 021115Z 0212/0312 09007KT 9999 FEW040 SCT060 TX21/0214Z TN11/0304Z TEMPO 0212/0218 SHRA SCT060 FEW060CB PROB30 TEMPO 0212/0218 VRB15G25KT TSRA TEMPO 0218/0221 -SHRA

Huidige satelliet- en regenbeelden voor Innsbruck, Oostenrijk

De locatiemarkering is geplaatst op Innsbruck. [Meer]

Het realtime satellietbeeld combineert zichtbaar licht overdag met infraroodstraling 's nachts. 's Nachts is het beeld niet donker, omdat infraroodstraling temperatuurverschillen kan waarnemen. Helaas zijn lage wolken en mist moeilijk te onderscheiden van grondtemperaturen en kunnen dus 's nachts bijna onzichtbaar zijn. Meteosat-satellietbeelden voor Europa worden elke 5 minuten in real time bijgewerkt. De beelden van GOES-16/GOES-17 (Noord- en Zuid-Amerika) en Himawari (Azië) worden om de 10 minuten bijgewerkt.

Neerslag wordt geschat door middel van radar en satellieten. Tijdens de nacht zijn de schattingen van satellieten minder nauwkeurig dan overdag. Oranje kruizen geven plaatsten aan waar bliksem werd waargenomen (boven Europa).

Copyright 2021 EUMETSAT / meteoblue. Bliksemgegevens verstrekt door nowcast.

Radar for Innsbruck

Motregen
Licht
Matig
Zwaar
Zeer zwaar
Hail

De locatiemarkering wordt geplaatst op Innsbruck. Deze animation toont de neerslag radar van het afgelopen uur, maar ook de 2h verwachting. Motregen en lichte sneeuw zijn niet zichtbaar op de radar. Neerslag intensiteitwordt in een kleurcode weergegeven, variërend van licht blauw tot zwart paars.
Copyright 2021 Deutscher Wetterdienst / meteoblue.

Huidigsituatie en waarschuwingen

EUMETNET – MeteoAlarm

pictomap

Bron: ZAMG

Vertragingen in de tijd tussen deze website en de www.meteoalarm.eu website zijn mogelijk, voor de meest up-to-date informatie over alert niveaus zoals gepubliceerd door de deelnemende nationale meteorologische diensten gebruik www.meteoalarm.eu.